Latest Weather Observations for Noona

IDN60801

Issued at 8:32 pm EDT Friday 16 November 2018 (issued every 10 minutes, with the page automatically refreshed every 10 minutes)

About weather observations | Map of weather stations | Latest weather observations for NSW | Other Formats
Station Details ID: 048250 Name: NOONA AWS Lat: -31.73 Lon: 144.93 Height: 179.0 m
Data from the previous 72 hours. | See also: Recent months at Noona
Date/Time
EDT
Temp
°C
App
Temp
°C
Dew
Point
°C
Rel
Hum
%
Delta-T
°C
Wind Press
QNH
hPa
Press
MSL
hPa
Rain since
9am
mm
Dir  Spd
km/h
Gust
km/h
Spd
kts
Gust
kts
16/08:30pm 26.2 - -3.4 14 13.0 - - - - - - - 0.0
16/08:00pm 27.0 - -2.7 14 13.3 - - - - - - - 0.0
16/07:30pm 27.9 - -4.1 12 14.1 - - - - - - - 0.0
16/07:00pm 28.8 - -4.6 11 14.7 - - - - - - - 0.0
16/06:30pm 29.4 - -4.1 11 14.9 - - - - - - - 0.0
16/06:00pm 29.6 - -3.9 11 15.0 - - - - - - - 0.0
16/05:30pm 29.7 - -3.9 11 15.1 - - - - - - - 0.0
16/05:00pm 30.4 - -3.3 11 15.4 - - - - - - - 0.0
16/04:30pm 30.3 - -3.4 11 15.3 - - - - - - - 0.0
16/04:00pm 30.0 - -2.5 12 15.0 - - - - - - - 0.0
16/03:30pm 30.3 - -2.2 12 15.1 - - - - - - - 0.0
16/03:00pm 29.8 - -1.5 13 14.7 - - - - - - - 0.0
16/02:30pm 29.5 - -0.8 14 14.3 - - - - - - - 0.0
16/02:00pm 29.2 - -0.1 15 14.0 - - - - - - - 0.0
16/01:30pm 27.7 - 0.5 17 13.0 - - - - - - - 0.0
16/01:00pm 27.5 - 1.1 18 12.7 - - - - - - - 0.0
16/12:30pm 27.4 - 1.8 19 12.5 - - - - - - - 0.0
16/12:00pm 26.7 - 1.9 20 12.1 - - - - - - - 0.0
16/11:30am 25.7 - 2.4 22 11.4 - - - - - - - 0.0
16/11:00am 25.9 - 3.2 23 11.2 - - - - - - - 0.0
16/10:30am 25.6 - 3.6 24 11.0 - - - - - - - 0.0
16/10:00am 24.3 - 3.6 26 10.2 - - - - - - - 0.0
16/09:30am 22.8 - 3.4 28 9.4 - - - - - - - 0.0
16/09:00am 22.1 - 4.2 31 8.8 - - - - - - - 0.0
16/08:30am 20.9 - 4.0 33 8.2 - - - - - - - 0.0
16/08:00am 19.1 - 4.1 37 7.2 - - - - - - - 0.0
16/07:30am 17.8 - 4.0 40 6.6 - - - - - - - 0.0
16/07:00am 16.6 - 4.0 43 5.9 - - - - - - - 0.0
16/06:30am 16.0 - 4.1 45 5.6 - - - - - - - 0.0
16/06:00am 16.2 - 3.9 44 5.8 - - - - - - - 0.0
16/05:30am 16.8 - 3.8 42 6.1 - - - - - - - 0.0
16/05:00am 17.6 - 3.9 40 6.5 - - - - - - - 0.0
16/04:30am 17.8 - 4.0 40 6.6 - - - - - - - 0.0
16/04:00am 18.4 - 3.8 38 6.9 - - - - - - - 0.0
16/03:30am 18.9 - 3.5 36 7.3 - - - - - - - 0.0
16/03:00am 19.4 - 4.0 36 7.4 - - - - - - - 0.0
16/02:30am 19.7 - 3.8 35 7.6 - - - - - - - 0.0
16/02:00am 20.3 - 3.9 34 7.9 - - - - - - - 0.0
16/01:30am 21.1 - 4.2 33 8.3 - - - - - - - 0.0
16/01:00am 21.7 - 3.9 31 8.7 - - - - - - - 0.0
16/12:30am 22.1 - 4.2 31 8.8 - - - - - - - 0.0
16/12:00am 22.7 - 4.2 30 9.1 - - - - - - - 0.0
 
Date/Time
EDT
Temp
°C
App
Temp
°C
Dew
Point
°C
Rel
Hum
%
Delta-T
°C
Wind Press
QNH
hPa
Press
MSL
hPa
Rain since
9am
mm
Dir  Spd
km/h
Gust
km/h
Spd
kts
Gust
kts
15/11:30pm 23.2 - 4.7 30 9.3 - - - - - - - 0.0
15/11:00pm 23.6 - 5.5 31 9.2 - - - - - - - 0.0
15/10:30pm 23.9 - 6.2 32 9.1 - - - - - - - 0.0
15/10:00pm 24.6 - 6.4 31 9.5 - - - - - - - 0.0
15/09:30pm 25.3 - 6.5 30 9.8 - - - - - - - 0.0
15/09:00pm 25.8 - 6.9 30 10.0 - - - - - - - 0.0
15/08:30pm 26.4 - 6.9 29 10.3 - - - - - - - 0.0
15/08:00pm 27.1 - 7.0 28 10.7 - - - - - - - 0.0
15/07:30pm 27.9 - 6.6 26 11.3 - - - - - - - 0.0
15/07:00pm 28.8 - 6.8 25 11.8 - - - - - - - 0.0
15/06:30pm 29.7 - 7.0 24 12.3 - - - - - - - 0.0
15/06:00pm 30.1 - 7.3 24 12.4 - - - - - - - 0.0
15/05:30pm 30.4 - 7.0 23 12.7 - - - - - - - 0.0
15/05:00pm 30.7 - 7.2 23 12.8 - - - - - - - 0.0
15/04:30pm 30.8 - 6.6 22 13.1 - - - - - - - 0.0
15/04:00pm 29.8 - 6.5 23 12.5 - - - - - - - 0.0
15/03:30pm 29.9 - 6.5 23 12.6 - - - - - - - 0.0
15/03:00pm 29.9 - 7.2 24 12.3 - - - - - - - 0.0
15/02:30pm 29.6 - 7.5 25 12.1 - - - - - - - 0.0
15/02:00pm 29.9 - 8.9 27 11.7 - - - - - - - 0.0
15/01:30pm 29.1 - 8.2 27 11.5 - - - - - - - 0.0
15/01:00pm 28.2 - 9.0 30 10.7 - - - - - - - 0.0
15/12:30pm 28.1 - 9.4 31 10.4 - - - - - - - 0.0
15/12:00pm 26.6 - 9.5 34 9.5 - - - - - - - 0.0
15/11:30am 26.0 - 9.8 36 9.0 - - - - - - - 0.0
15/11:00am 25.1 - 9.8 38 8.5 - - - - - - - 0.0
15/10:30am 24.8 - 10.3 40 8.1 - - - - - - - 0.0
15/10:00am 23.5 - 10.2 43 7.4 - - - - - - - 0.0
15/09:30am 22.8 - 10.6 46 6.8 - - - - - - - 0.0
15/09:00am 22.2 - 10.7 48 6.4 - - - - - - - 0.0
15/08:30am 21.2 - 10.4 50 5.9 - - - - - - - 0.0
15/08:00am 20.3 - 10.1 52 5.5 - - - - - - - 0.0
15/07:30am 19.8 - 9.4 51 5.6 - - - - - - - 0.0
15/07:00am 19.4 - 9.0 51 5.5 - - - - - - - 0.0
15/06:30am 19.2 - 9.1 52 5.3 - - - - - - - 0.0
15/06:00am 19.4 - 9.6 53 5.2 - - - - - - - 0.0
15/05:30am 20.1 - 9.9 52 5.5 - - - - - - - 0.0
15/05:00am 20.6 - 12.3 59 4.7 - - - - - - - 0.0
15/04:30am 21.0 - 13.7 63 4.2 - - - - - - - 0.0
15/04:00am 20.9 - 14.8 68 3.6 - - - - - - - 0.0
15/03:30am 21.3 - 14.9 67 3.8 - - - - - - - 0.0
15/03:00am 21.2 - 15.1 68 3.6 - - - - - - - 0.0
15/02:30am 21.6 - 15.2 67 3.8 - - - - - - - 0.0
15/02:00am 22.0 - 15.4 66 4.0 - - - - - - - 0.0
15/01:30am 22.4 - 15.3 64 4.3 - - - - - - - 0.0
15/01:00am 22.8 - 15.4 63 4.5 - - - - - - - 0.0
15/12:30am 23.1 - 15.4 62 4.6 - - - - - - - 0.0
15/12:00am 23.3 - 15.4 61 4.8 - - - - - - - 0.0
 
Date/Time
EDT
Temp
°C
App
Temp
°C
Dew
Point
°C
Rel
Hum
%
Delta-T
°C
Wind Press
QNH
hPa
Press
MSL
hPa
Rain since
9am
mm
Dir  Spd
km/h
Gust
km/h
Spd
kts
Gust
kts
14/11:30pm 23.6 - 15.4 60 5.0 - - - - - - - 0.0
14/11:00pm 24.4 - 15.3 57 5.5 - - - - - - - 0.0
14/10:30pm 24.9 - 15.2 54 5.9 - - - - - - - 0.0
14/10:00pm 25.3 - 14.7 51 6.4 - - - - - - - 0.0
14/09:30pm 26.2 - 14.6 48 7.0 - - - - - - - 0.0
14/09:00pm 26.9 - 14.6 46 7.4 - - - - - - - 0.0
14/08:30pm 27.6 - 14.9 45 7.7 - - - - - - - 0.0
14/08:00pm 28.3 - 14.2 42 8.5 - - - - - - - 0.0
14/07:30pm 29.4 - 11.5 33 10.4 - - - - - - - 0.0
14/07:00pm 29.9 - 11.4 32 10.8 - - - - - - - 0.0
14/06:30pm 30.6 - 11.5 30 11.2 - - - - - - - 0.0
14/06:00pm 30.4 - 11.9 32 10.9 - - - - - - - 0.0
14/05:30pm 30.2 - 11.7 32 10.8 - - - - - - - 0.0
14/05:00pm 30.9 - 11.8 31 11.2 - - - - - - - 0.0
14/04:30pm 30.6 - 12.5 33 10.8 - - - - - - - 0.0
14/04:00pm 30.7 - 13.9 36 10.2 - - - - - - - 0.0
14/03:30pm 29.9 - 13.2 36 10.0 - - - - - - - 0.0
14/03:00pm 29.9 - 13.6 36 9.8 - - - - - - - 0.0
14/02:30pm 28.8 - 13.5 39 9.2 - - - - - - - 0.0
14/02:00pm 28.6 - 15.2 44 8.2 - - - - - - - 0.0
14/01:30pm 28.2 - 15.1 44 8.0 - - - - - - - 0.0
14/01:00pm 28.2 - 15.8 47 7.7 - - - - - - - 0.0
14/12:30pm 27.3 - 15.3 48 7.4 - - - - - - - 0.0
14/12:00pm 26.7 - 16.0 52 6.6 - - - - - - - 0.0
14/11:30am 25.7 - 16.0 55 6.0 - - - - - - - 0.0
14/11:00am 25.4 - 16.3 57 5.6 - - - - - - - 0.0
14/10:30am 24.4 - 16.1 60 5.1 - - - - - - - 0.0
14/10:00am 23.9 - 16.9 65 4.3 - - - - - - - 0.0
14/09:30am 23.0 - 17.0 69 3.7 - - - - - - - 0.0
14/09:00am 22.1 - 17.2 74 3.0 - - - - - - - 3.4
14/08:30am 20.3 - 17.9 86 1.5 - - - - - - - 3.4
14/08:00am 19.1 - 18.1 94 0.6 - - - - - - - 3.4
14/07:30am 19.1 - 17.8 92 0.8 - - - - - - - 3.2
14/07:00am 18.1 - 17.6 97 0.3 - - - - - - - 3.2
14/06:30am 17.9 - 17.4 97 0.3 - - - - - - - 3.2
14/06:00am 18.0 - 17.5 97 0.3 - - - - - - - 3.2
14/05:30am 17.9 - 17.6 98 0.2 - - - - - - - 3.2
14/05:00am 17.9 - 17.6 98 0.2 - - - - - - - 3.2
14/04:30am 18.1 - 17.8 98 0.2 - - - - - - - 3.2
14/04:00am 18.2 - 17.9 98 0.2 - - - - - - - 3.2
14/03:30am 18.4 - 18.1 98 0.2 - - - - - - - 3.2
14/03:00am 18.5 - 18.0 97 0.3 - - - - - - - 3.2
14/02:30am 18.5 - 18.0 97 0.3 - - - - - - - 3.2
14/02:00am 18.5 - 17.9 96 0.4 - - - - - - - 3.2
14/01:30am 18.6 - 17.6 94 0.6 - - - - - - - 2.8
14/01:00am 18.7 - 17.5 93 0.7 - - - - - - - 2.6
14/12:30am 18.9 - 17.4 91 0.9 - - - - - - - 2.6
14/12:00am 19.0 - 17.1 89 1.2 - - - - - - - 2.6
 
Date/Time
EDT
Temp
°C
App
Temp
°C
Dew
Point
°C
Rel
Hum
%
Delta-T
°C
Wind Press
QNH
hPa
Press
MSL
hPa
Rain since
9am
mm
Dir  Spd
km/h
Gust
km/h
Spd
kts
Gust
kts
13/11:30pm 18.8 - 17.3 91 0.9 - - - - - - - 2.4
13/11:00pm 18.8 - 18.0 95 0.5 - - - - - - - 2.4
13/10:30pm 18.7 - 17.9 95 0.5 - - - - - - - 2.2
13/10:00pm 18.7 - 17.5 93 0.7 - - - - - - - 1.8
13/09:30pm 18.8 - 18.0 95 0.5 - - - - - - - 1.8
13/09:00pm 18.8 - 17.8 94 0.6 - - - - - - - 1.6

Other Formats:

Comma delimited format used in spreadsheet applications
http://www.bom.gov.au/fwo/IDN60801/IDN60801.94798.axf

JavaScript Object Notation format (JSON) in row-major order
http://www.bom.gov.au/fwo/IDN60801/IDN60801.94798.json